CheckWX is a tool to help pilots better visualize weather data.  It is not intended as a substitute for an official pre-flight weather briefing.

21:17:03 UTC

KFDY METAR
Findlay Airport
Findlay, Ohio, USA
Current

11 mins ago

KFDY 232106Z AUTO 13007KT 3SM BR OVC011 07/06 A2990 RMK AO2 RAB2054E06 P0000 T00670056
Observed
Feb-23 @ 21:06 UTC
Wind
  • 130° at 7 KTS
Visibility
3 SM
Flight Rules
MVFR
Conditions
Mist
Cloud Levels
  • Overcast at 1,100' AGL
Temperature
C / 45°F
Dewpoint
C / 43°F
Humidity
93%
Altimeter
29.9" Hg
Pressure
1012.52 hPa
Current Rain
0.01"
Previous

24 mins ago

KFDY 232053Z AUTO 13009KT 2 1/2SM BR OVC011 07/05 A2990 RMK AO2 SLP129 T00720050 56030
Observed
Feb-23 @ 20:53 UTC
Wind
  • 130° at 9 KTS
Visibility
2 1/2 SM
Flight Rules
IFR
Conditions
Mist
Cloud Levels
  • Overcast at 1,100' AGL
Temperature
C / 45°F
Dewpoint
C / 41°F
Humidity
87%
Altimeter
29.9" Hg
Pressure
1012.9 hPa
Previous

49 mins ago

KFDY 232028Z AUTO 14010KT 10SM OVC014 08/04 A2990 RMK AO2 T00830039
Observed
Feb-23 @ 20:28 UTC
Wind
  • 140° at 10 KTS
Visibility
10 SM
Flight Rules
MVFR
Cloud Levels
  • Overcast at 1,400' AGL
Temperature
C / 46°F
Dewpoint
C / 39°F
Humidity
76%
Altimeter
29.9" Hg
Pressure
1012.52 hPa